createdAt,value
2022-11-29T00:01:19.081Z,4.47
2022-11-29T00:03:46.977Z,6.40
2022-11-29T00:06:20.158Z,3.63
2022-11-29T00:08:48.128Z,1.77
2022-11-29T00:11:38.238Z,4.32
2022-11-29T00:14:06.422Z,4.05
2022-11-29T00:16:33.579Z,1.63
2022-11-29T00:19:00.558Z,3.83
2022-11-29T00:21:27.973Z,3.83
2022-11-29T00:23:54.873Z,1.65
2022-11-29T00:26:21.870Z,1.70
2022-11-29T00:28:48.748Z,2.20
2022-11-29T00:31:31.305Z,3.80
2022-11-29T00:33:59.842Z,4.10
2022-11-29T00:36:26.781Z,12.23
2022-11-29T00:38:53.731Z,4.90
2022-11-29T00:41:21.028Z,1.45
2022-11-29T00:43:48.134Z,2.85
2022-11-29T00:46:15.258Z,3.20
2022-11-29T00:48:42.287Z,7.97
2022-11-29T00:51:09.284Z,2.90
2022-11-29T00:53:36.894Z,5.53
2022-11-29T00:56:04.756Z,5.90
2022-11-29T00:58:35.195Z,2.92
2022-11-29T01:01:02.051Z,1.80
2022-11-29T01:03:28.971Z,1.85
2022-11-29T01:06:13.916Z,2.10
2022-11-29T01:08:42.265Z,3.15
2022-11-29T01:11:13.687Z,5.47
2022-11-29T01:13:41.485Z,5.55
2022-11-29T01:16:09.052Z,1.77
2022-11-29T01:18:36.762Z,4.60
2022-11-29T01:21:24.493Z,2.50
2022-11-29T01:23:52.922Z,2.40
2022-11-29T01:26:23.000Z,2.97
2022-11-29T01:28:51.790Z,6.25
2022-11-29T01:31:21.697Z,2.40
2022-11-29T01:33:49.003Z,2.13
2022-11-29T01:36:15.997Z,3.47
2022-11-29T01:38:43.112Z,4.18
2022-11-29T01:41:14.699Z,2.83
2022-11-29T01:44:12.355Z,1.70
2022-11-29T01:46:44.947Z,9.13
2022-11-29T01:49:13.402Z,5.57
2022-11-29T01:51:43.230Z,1.67
2022-11-29T01:54:12.044Z,2.42
2022-11-29T01:56:39.879Z,3.05
2022-11-29T01:59:14.542Z,5.50
2022-11-29T02:01:41.538Z,2.75
2022-11-29T02:04:08.931Z,2.47
2022-11-29T02:06:37.170Z,2.47
2022-11-29T02:09:05.070Z,3.80
2022-11-29T02:11:56.249Z,5.13
2022-11-29T02:14:45.231Z,1.67
2022-11-29T02:17:31.288Z,1.65
2022-11-29T02:20:07.146Z,4.90
2022-11-29T02:23:01.711Z,1.60
2022-11-29T02:25:47.306Z,1.85
2022-11-29T02:28:57.814Z,1.15
2022-11-29T02:31:42.707Z,1.52
2022-11-29T02:34:28.412Z,3.58
2022-11-29T02:37:11.816Z,2.63
2022-11-29T02:40:00.183Z,5.25
2022-11-29T02:42:27.000Z,3.72
2022-11-29T02:45:29.377Z,3.38
2022-11-29T02:48:28.155Z,4.28
2022-11-29T02:51:12.146Z,0.75
2022-11-29T02:54:04.033Z,5.88
2022-11-29T02:57:12.647Z,6.97
2022-11-29T02:59:46.505Z,2.72
2022-11-29T03:02:28.449Z,6.35
2022-11-29T03:05:07.952Z,2.95
2022-11-29T03:07:58.732Z,4.97
2022-11-29T03:10:32.151Z,1.85
2022-11-29T03:12:59.874Z,5.55
2022-11-29T03:16:03.600Z,6.22
2022-11-29T03:18:35.688Z,2.35
2022-11-29T03:21:19.576Z,2.92
2022-11-29T03:23:49.542Z,2.58
2022-11-29T03:26:38.252Z,2.72
2022-11-29T03:29:29.759Z,5.47
2022-11-29T03:32:16.923Z,7.35
2022-11-29T03:35:04.525Z,2.38
2022-11-29T03:38:02.246Z,2.63
2022-11-29T03:40:51.798Z,2.25
2022-11-29T03:43:23.571Z,8.23
2022-11-29T03:46:01.021Z,7.25
2022-11-29T03:48:31.817Z,3.33
2022-11-29T03:51:11.370Z,6.28
2022-11-29T03:53:57.001Z,4.50
2022-11-29T03:56:29.912Z,4.45
2022-11-29T03:59:27.655Z,2.83
2022-11-29T04:02:12.880Z,11.27
2022-11-29T04:05:07.802Z,2.58
2022-11-29T04:08:00.821Z,3.40
2022-11-29T04:10:50.436Z,2.72
2022-11-29T04:13:34.713Z,7.05
2022-11-29T04:16:39.867Z,1.25
2022-11-29T04:19:06.669Z,4.32
2022-11-29T04:22:08.327Z,6.00
2022-11-29T04:24:38.273Z,1.23
2022-11-29T04:27:31.064Z,4.35
2022-11-29T04:30:24.944Z,4.07
2022-11-29T04:33:29.858Z,3.50
2022-11-29T04:36:15.422Z,1.98
2022-11-29T04:38:51.631Z,6.75
2022-11-29T04:44:00.505Z,3.30
2022-11-29T04:46:36.391Z,6.13
2022-11-29T04:49:37.187Z,4.60
2022-11-29T04:52:19.233Z,6.57
2022-11-29T04:55:04.676Z,3.15
2022-11-29T04:57:38.205Z,4.85
2022-11-29T05:00:09.882Z,7.32
2022-11-29T05:02:36.857Z,3.78
2022-11-29T05:05:21.729Z,2.60
2022-11-29T05:07:51.640Z,3.20
2022-11-29T05:10:49.917Z,2.20
2022-11-29T05:13:46.867Z,6.80
2022-11-29T05:16:29.062Z,6.32
2022-11-29T05:19:04.977Z,8.35
2022-11-29T05:21:56.273Z,5.50
2022-11-29T05:25:00.652Z,4.15
2022-11-29T05:27:58.173Z,9.63
2022-11-29T05:30:33.350Z,2.35
2022-11-29T05:33:18.783Z,2.00
2022-11-29T05:36:23.732Z,6.07
2022-11-29T05:38:59.436Z,3.65
2022-11-29T05:41:48.175Z,3.05
2022-11-29T05:44:52.508Z,6.13
2022-11-29T05:47:36.855Z,1.83
2022-11-29T05:50:06.704Z,6.90
2022-11-29T05:53:02.265Z,3.78
2022-11-29T05:56:06.501Z,6.32
2022-11-29T05:58:36.363Z,3.20
2022-11-29T06:01:26.047Z,2.85
2022-11-29T06:04:17.921Z,4.43
2022-11-29T06:07:19.366Z,4.90
2022-11-29T06:09:59.183Z,2.40
2022-11-29T06:12:31.033Z,4.13
2022-11-29T06:15:00.834Z,8.13
2022-11-29T06:17:52.776Z,3.05
2022-11-29T06:21:00.070Z,2.70
2022-11-29T06:23:43.898Z,2.55
2022-11-29T06:26:38.549Z,0.98
2022-11-29T06:29:25.403Z,3.25
2022-11-29T06:32:19.173Z,4.40
2022-11-29T06:35:05.271Z,3.03
2022-11-29T06:37:41.177Z,0.68
2022-11-29T06:40:14.382Z,1.23
2022-11-29T06:42:41.562Z,3.47
2022-11-29T06:45:12.506Z,1.75
2022-11-29T06:47:57.180Z,1.25
2022-11-29T06:51:01.433Z,6.22
2022-11-29T06:53:42.165Z,5.22
2022-11-29T06:56:43.479Z,4.97
2022-11-29T06:59:25.327Z,5.07
2022-11-29T07:01:56.198Z,1.90
2022-11-29T07:04:45.507Z,5.10
2022-11-29T07:07:18.628Z,3.10
2022-11-29T07:09:49.393Z,2.83
2022-11-29T07:12:17.701Z,6.93
2022-11-29T07:14:45.740Z,3.50
2022-11-29T07:17:40.201Z,2.70
2022-11-29T07:20:23.423Z,2.83
2022-11-29T07:22:56.340Z,1.67
2022-11-29T07:25:38.482Z,5.30
2022-11-29T07:28:28.066Z,7.03
2022-11-29T07:31:13.329Z,3.35
2022-11-29T07:33:58.116Z,3.45
2022-11-29T07:36:39.200Z,8.10
2022-11-29T07:39:12.062Z,4.65
2022-11-29T07:42:12.090Z,3.65
2022-11-29T07:45:10.730Z,4.80
2022-11-29T07:47:37.609Z,2.47
2022-11-29T07:50:04.929Z,4.82
2022-11-29T07:52:32.124Z,2.78
2022-11-29T07:54:59.065Z,4.13
2022-11-29T07:57:25.942Z,1.15
2022-11-29T07:59:52.805Z,2.42
2022-11-29T08:02:30.818Z,2.88
2022-11-29T08:04:59.298Z,3.20
2022-11-29T08:07:26.229Z,7.43
2022-11-29T08:09:53.246Z,10.95
2022-11-29T08:15:06.465Z,2.08
2022-11-29T08:17:33.405Z,2.38
2022-11-29T08:20:03.996Z,3.42
2022-11-29T08:22:31.504Z,9.77
2022-11-29T08:24:59.948Z,6.10
2022-11-29T08:27:27.006Z,11.43
2022-11-29T08:29:53.857Z,9.27
2022-11-29T08:32:20.740Z,10.98
2022-11-29T08:34:47.910Z,2.03
2022-11-29T08:37:14.898Z,2.15
2022-11-29T08:39:42.031Z,9.75
2022-11-29T08:42:09.017Z,3.80
2022-11-29T08:44:35.913Z,7.07
2022-11-29T08:47:21.567Z,4.25
2022-11-29T08:50:03.667Z,3.22
2022-11-29T08:52:50.889Z,5.75
2022-11-29T08:55:20.007Z,5.85
2022-11-29T08:57:48.354Z,8.25
2022-11-29T09:00:16.088Z,9.88
2022-11-29T09:02:43.026Z,4.55
2022-11-29T09:05:11.060Z,3.92
2022-11-29T09:07:38.818Z,5.20
2022-11-29T09:10:08.428Z,3.50
2022-11-29T09:12:38.784Z,6.75
2022-11-29T09:15:07.676Z,8.13
2022-11-29T09:17:34.710Z,5.90
2022-11-29T09:20:01.687Z,4.93
2022-11-29T09:22:28.686Z,4.18
2022-11-29T09:24:55.894Z,7.68
2022-11-29T09:27:22.771Z,4.72
2022-11-29T09:29:52.718Z,3.58
2022-11-29T09:32:19.664Z,2.90
2022-11-29T09:34:46.770Z,7.65
2022-11-29T09:37:13.864Z,8.70
2022-11-29T09:39:41.680Z,3.60
2022-11-29T09:42:15.556Z,3.60
2022-11-29T09:44:48.682Z,6.60
2022-11-29T09:47:53.191Z,3.72
2022-11-29T09:50:43.204Z,8.10
2022-11-29T09:53:44.888Z,3.53
2022-11-29T09:56:32.048Z,6.45
2022-11-29T09:59:08.977Z,1.42
2022-11-29T10:01:40.166Z,3.95
2022-11-29T10:04:15.233Z,3.22
2022-11-29T10:07:04.346Z,3.33
2022-11-29T10:09:43.490Z,5.85
2022-11-29T10:12:18.545Z,3.53
2022-11-29T10:14:59.853Z,6.68
2022-11-29T10:17:26.818Z,5.32
2022-11-29T10:19:59.563Z,7.07
2022-11-29T10:23:23.244Z,4.35
2022-11-29T10:25:59.770Z,2.10
2022-11-29T10:28:31.366Z,1.98
2022-11-29T10:31:32.933Z,2.00
2022-11-29T10:34:02.399Z,2.42
2022-11-29T10:36:43.290Z,4.93
2022-11-29T10:39:26.302Z,3.72
2022-11-29T10:41:59.762Z,1.65
2022-11-29T10:44:27.710Z,2.95
2022-11-29T10:46:55.896Z,6.03
2022-11-29T10:49:27.361Z,5.10
2022-11-29T10:51:54.835Z,4.03
2022-11-29T10:54:42.526Z,2.47
2022-11-29T10:57:21.241Z,2.20
2022-11-29T11:00:12.323Z,4.47
2022-11-29T11:02:39.439Z,1.88
2022-11-29T11:05:18.850Z,2.53
2022-11-29T11:07:47.616Z,2.63
2022-11-29T11:10:30.929Z,4.63
2022-11-29T11:13:08.165Z,3.70
2022-11-29T11:15:35.303Z,3.90
2022-11-29T11:18:07.126Z,2.78
2022-11-29T11:20:38.059Z,3.78
2022-11-29T11:23:08.302Z,3.83
2022-11-29T11:25:39.060Z,2.55
2022-11-29T11:28:22.380Z,1.13
2022-11-29T11:31:02.135Z,2.35
2022-11-29T11:33:31.516Z,4.95
2022-11-29T11:36:17.291Z,2.97
2022-11-29T11:38:54.766Z,3.65
2022-11-29T11:41:52.177Z,3.40
2022-11-29T11:44:47.510Z,2.72
2022-11-29T11:47:21.792Z,3.80
2022-11-29T11:50:16.839Z,4.65
2022-11-29T11:52:50.640Z,3.25
2022-11-29T11:55:36.840Z,3.88
2022-11-29T11:58:14.024Z,1.33
2022-11-29T12:01:03.321Z,6.10
2022-11-29T12:03:50.001Z,3.80
2022-11-29T12:06:36.543Z,3.28
2022-11-29T12:09:19.933Z,1.75
2022-11-29T12:12:02.410Z,2.90
2022-11-29T12:15:00.481Z,3.65
2022-11-29T12:17:45.757Z,1.83
2022-11-29T12:20:26.196Z,2.63
2022-11-29T12:23:11.911Z,1.38
2022-11-29T12:25:48.037Z,1.95
2022-11-29T12:28:20.635Z,1.80
2022-11-29T12:30:59.901Z,1.60
2022-11-29T12:34:04.256Z,0.90
2022-11-29T12:37:13.544Z,1.77
2022-11-29T12:40:04.895Z,2.50
2022-11-29T12:42:43.781Z,1.75
2022-11-29T12:45:32.188Z,1.13
2022-11-29T12:48:35.692Z,4.38
2022-11-29T12:51:19.029Z,0.63
2022-11-29T12:53:59.682Z,1.95
2022-11-29T12:56:43.983Z,1.52
2022-11-29T12:59:17.269Z,3.47
2022-11-29T13:02:25.854Z,2.10
2022-11-29T13:05:09.674Z,2.00
2022-11-29T13:07:42.999Z,1.58
2022-11-29T13:10:26.587Z,2.08
2022-11-29T13:12:59.666Z,6.10
2022-11-29T13:15:52.240Z,2.80
2022-11-29T13:18:30.507Z,1.83
2022-11-29T13:21:04.623Z,2.90
2022-11-29T13:24:10.913Z,2.17
2022-11-29T13:26:42.071Z,1.65
2022-11-29T13:29:15.575Z,1.98
2022-11-29T13:31:43.813Z,1.08
2022-11-29T13:34:16.095Z,0.90
2022-11-29T13:37:04.078Z,2.55
2022-11-29T13:39:55.861Z,1.92
2022-11-29T13:42:28.256Z,2.38
2022-11-29T13:45:04.219Z,1.58
2022-11-29T13:47:31.385Z,1.33
2022-11-29T13:50:36.395Z,1.77
2022-11-29T13:53:17.253Z,1.30
2022-11-29T13:56:01.166Z,1.50
2022-11-29T13:58:28.121Z,1.55
2022-11-29T14:00:59.082Z,2.03
2022-11-29T14:03:32.789Z,1.55
2022-11-29T14:06:03.350Z,1.70
2022-11-29T14:09:10.861Z,1.90
2022-11-29T14:11:43.186Z,1.08
2022-11-29T14:14:28.224Z,1.60
2022-11-29T14:17:00.196Z,2.72
2022-11-29T14:19:34.075Z,1.40
2022-11-29T14:22:07.026Z,1.90
2022-11-29T14:24:37.079Z,1.45
2022-11-29T14:27:10.193Z,0.85
2022-11-29T14:29:49.597Z,2.85
2022-11-29T14:32:33.082Z,2.35
2022-11-29T14:35:11.974Z,2.58
2022-11-29T14:37:55.970Z,1.38
2022-11-29T14:40:41.638Z,2.53
2022-11-29T14:43:36.735Z,1.48
2022-11-29T14:46:15.682Z,2.30
2022-11-29T14:48:56.582Z,2.75
2022-11-29T14:51:26.142Z,1.55
2022-11-29T14:54:08.156Z,1.20
2022-11-29T14:56:39.023Z,2.53
2022-11-29T14:59:43.746Z,1.08
2022-11-29T15:02:26.067Z,1.90
2022-11-29T15:04:56.568Z,2.13
2022-11-29T15:07:33.261Z,3.70
2022-11-29T15:10:04.254Z,5.35
2022-11-29T15:12:36.675Z,2.13
2022-11-29T15:15:21.722Z,3.88
2022-11-29T15:18:20.085Z,1.90
2022-11-29T15:21:28.207Z,2.40
2022-11-29T15:24:09.291Z,1.80
2022-11-29T15:26:36.155Z,1.70
2022-11-29T15:29:18.396Z,2.53
2022-11-29T15:31:48.694Z,2.47
2022-11-29T15:34:33.795Z,3.47
2022-11-29T15:37:01.449Z,3.33
2022-11-29T15:39:36.708Z,5.78
2022-11-29T15:42:17.865Z,1.73
2022-11-29T15:44:46.267Z,2.53
2022-11-29T15:47:25.862Z,2.95
2022-11-29T15:49:55.299Z,1.10
2022-11-29T15:52:35.911Z,1.67
2022-11-29T15:55:06.563Z,2.85
2022-11-29T15:57:44.202Z,2.20
2022-11-29T16:00:20.467Z,3.90
2022-11-29T16:05:26.522Z,4.00
2022-11-29T16:08:00.564Z,1.60
2022-11-29T16:10:43.723Z,7.75
2022-11-29T16:13:25.798Z,8.40
2022-11-29T16:16:13.732Z,9.52
2022-11-29T16:18:42.503Z,19.55
2022-11-29T16:21:27.344Z,19.48
2022-11-29T16:23:55.268Z,16.50
2022-11-29T16:26:34.929Z,10.50
2022-11-29T16:29:02.548Z,9.85
2022-11-29T16:31:37.872Z,11.82
2022-11-29T16:34:10.517Z,9.13
2022-11-29T16:36:37.517Z,9.18
2022-11-29T16:39:15.550Z,5.70
2022-11-29T16:41:42.643Z,4.45
2022-11-29T16:44:41.444Z,8.68
2022-11-29T16:47:23.466Z,7.45
2022-11-29T16:50:02.655Z,4.07
2022-11-29T16:52:32.154Z,5.05
2022-11-29T16:54:59.491Z,10.63
2022-11-29T16:57:28.548Z,9.10
2022-11-29T16:59:55.528Z,12.02
2022-11-29T17:02:22.668Z,28.38
2022-11-29T17:04:51.336Z,20.10
2022-11-29T17:07:30.919Z,13.70
2022-11-29T17:09:59.208Z,12.50
2022-11-29T17:12:26.099Z,57.40
2022-11-29T17:14:53.571Z,82.53
2022-11-29T17:17:20.619Z,58.95
2022-11-29T17:19:47.536Z,39.47
2022-11-29T17:22:14.688Z,25.70
2022-11-29T17:24:46.382Z,32.47
2022-11-29T17:27:15.003Z,28.33
2022-11-29T17:29:42.888Z,23.70
2022-11-29T17:32:10.427Z,17.38
2022-11-29T17:34:37.700Z,16.65
2022-11-29T17:37:05.171Z,12.80
2022-11-29T17:39:32.798Z,12.48
2022-11-29T17:42:03.417Z,10.63
2022-11-29T17:44:30.372Z,10.18
2022-11-29T17:47:49.848Z,10.32
2022-11-29T17:51:17.466Z,18.08
2022-11-29T17:53:55.038Z,12.38
2022-11-29T17:56:48.932Z,10.23
2022-11-29T17:59:26.449Z,14.80
2022-11-29T18:01:53.934Z,11.75
2022-11-29T18:04:21.200Z,13.52
2022-11-29T18:06:51.367Z,12.73
2022-11-29T18:09:19.695Z,13.88
2022-11-29T18:11:49.694Z,20.63
2022-11-29T18:14:28.525Z,16.00
2022-11-29T18:16:56.112Z,16.95
2022-11-29T18:19:24.038Z,9.77
2022-11-29T18:21:51.576Z,10.65
2022-11-29T18:24:19.171Z,10.55
2022-11-29T18:26:46.943Z,10.13
2022-11-29T18:29:16.956Z,4.90
2022-11-29T18:31:46.131Z,11.10
2022-11-29T18:34:49.574Z,15.25
2022-11-29T18:37:33.731Z,16.17
2022-11-29T18:40:28.403Z,9.40
2022-11-29T18:54:50.074Z,6.97
2022-11-29T18:58:09.996Z,8.88
2022-11-29T19:00:37.895Z,10.63
2022-11-29T19:03:20.125Z,6.65
2022-11-29T19:08:49.791Z,8.95
2022-11-29T19:11:21.951Z,3.90
2022-11-29T19:14:00.248Z,8.32
2022-11-29T19:16:29.748Z,5.10
2022-11-29T19:18:59.301Z,11.02
2022-11-29T19:21:28.481Z,4.00
2022-11-29T19:27:26.315Z,4.95
2022-11-29T19:29:53.709Z,4.22
2022-11-29T19:32:39.931Z,5.07
2022-11-29T19:35:10.305Z,15.07
2022-11-29T19:38:53.148Z,30.90
2022-11-29T19:41:27.342Z,217.23
2022-11-29T19:44:01.160Z,110.57
2022-11-29T19:49:50.782Z,237.68
2022-11-29T19:52:44.428Z,69.40
2022-11-29T19:55:11.790Z,49.00
2022-11-29T19:57:51.452Z,30.48
2022-11-29T20:00:19.595Z,27.85
2022-11-29T20:03:02.145Z,18.80
2022-11-29T20:09:29.939Z,11.98
2022-11-29T20:12:32.973Z,9.60
2022-11-29T20:15:31.300Z,8.48
2022-11-29T20:18:57.508Z,7.25
2022-11-29T20:22:31.807Z,7.70
2022-11-29T20:35:02.669Z,5.57
2022-11-29T20:37:44.552Z,6.60
2022-11-29T20:40:18.150Z,4.65
2022-11-29T20:43:08.663Z,7.32
2022-11-29T20:46:28.492Z,4.88
2022-11-29T20:48:58.447Z,5.72
2022-11-29T20:52:25.873Z,5.07
2022-11-29T20:54:53.023Z,7.82
2022-11-29T20:57:29.000Z,5.20
2022-11-29T20:59:56.102Z,6.38
2022-11-29T21:02:35.635Z,7.00
2022-11-29T21:05:02.866Z,7.03
2022-11-29T21:07:42.619Z,7.25
2022-11-29T21:10:10.478Z,4.50
2022-11-29T21:13:07.499Z,7.68
2022-11-29T21:15:37.653Z,7.20
2022-11-29T21:18:06.079Z,4.15
2022-11-29T21:20:37.012Z,5.00
2022-11-29T21:27:19.788Z,6.65
2022-11-29T21:42:55.984Z,5.10
2022-11-29T21:45:59.208Z,3.65
2022-11-29T21:48:59.958Z,5.78
2022-11-29T22:02:45.688Z,2.80
2022-11-29T22:06:05.448Z,3.28
2022-11-29T22:09:39.161Z,5.72
2022-11-29T22:12:32.517Z,3.58
2022-11-29T22:14:59.182Z,3.13
2022-11-29T22:17:26.204Z,4.80
2022-11-29T22:19:53.403Z,6.65
2022-11-29T22:22:28.123Z,6.30
2022-11-29T22:24:55.499Z,4.00
2022-11-29T22:27:22.750Z,2.03
2022-11-29T22:30:47.431Z,2.25
2022-11-29T22:33:34.672Z,5.63
2022-11-29T22:36:29.469Z,5.47
2022-11-29T22:39:26.037Z,2.45
2022-11-29T22:55:05.220Z,6.47
2022-11-29T22:58:10.025Z,2.70
2022-11-29T23:00:42.763Z,3.55
2022-11-29T23:03:43.846Z,2.33
2022-11-29T23:07:22.536Z,2.80
2022-11-29T23:17:48.760Z,4.80
2022-11-29T23:20:15.934Z,6.78
2022-11-29T23:22:43.116Z,3.70
2022-11-29T23:25:25.657Z,2.63
2022-11-29T23:26:25.918Z,1.58
2022-11-29T23:27:54.743Z,2.58
2022-11-29T23:30:21.827Z,5.88
2022-11-29T23:32:48.938Z,3.35
2022-11-29T23:35:16.204Z,3.55
2022-11-29T23:37:43.558Z,3.22
2022-11-29T23:40:11.176Z,1.52
2022-11-29T23:42:39.205Z,1.40
2022-11-29T23:45:08.640Z,2.55
2022-11-29T23:47:41.422Z,1.90
2022-11-29T23:50:32.056Z,5.03
2022-11-29T23:53:08.833Z,1.40
2022-11-29T23:56:17.453Z,0.75
2022-11-29T23:59:16.481Z,1.30
